sensor_id;sensor_type;location;lat;lon;timestamp;temperature;humidity
43338;DHT22;28933;52.492;13.434;2023-11-21T00:01:05;10.20;99.90
43338;DHT22;28933;52.492;13.434;2023-11-21T00:03:54;10.10;99.90
43338;DHT22;28933;52.492;13.434;2023-11-21T00:06:41;10.00;99.90
43338;DHT22;28933;52.492;13.434;2023-11-21T00:09:26;9.90;99.90
43338;DHT22;28933;52.492;13.434;2023-11-21T00:12:13;9.80;99.90
43338;DHT22;28933;52.492;13.434;2023-11-21T00:15:00;9.60;99.90
43338;DHT22;28933;52.492;13.434;2023-11-21T00:17:46;9.60;99.90
43338;DHT22;28933;52.492;13.434;2023-11-21T00:20:32;9.50;99.90
43338;DHT22;28933;52.492;13.434;2023-11-21T00:23:18;9.50;99.90
43338;DHT22;28933;52.492;13.434;2023-11-21T00:26:04;9.40;99.90
43338;DHT22;28933;52.492;13.434;2023-11-21T00:28:50;9.30;99.90
43338;DHT22;28933;52.492;13.434;2023-11-21T00:31:36;9.20;99.90
43338;DHT22;28933;52.492;13.434;2023-11-21T00:34:22;9.10;99.90
43338;DHT22;28933;52.492;13.434;2023-11-21T00:37:08;9.10;99.90
43338;DHT22;28933;52.492;13.434;2023-11-21T00:39:54;9.00;99.90
43338;DHT22;28933;52.492;13.434;2023-11-21T00:42:40;9.00;99.90
43338;DHT22;28933;52.492;13.434;2023-11-21T00:45:26;9.00;99.90
43338;DHT22;28933;52.492;13.434;2023-11-21T00:48:12;8.90;99.90
43338;DHT22;28933;52.492;13.434;2023-11-21T00:50:59;8.90;99.90
43338;DHT22;28933;52.492;13.434;2023-11-21T00:53:45;8.80;99.90
43338;DHT22;28933;52.492;13.434;2023-11-21T00:56:32;8.80;99.90
43338;DHT22;28933;52.492;13.434;2023-11-21T00:59:18;8.80;99.90
43338;DHT22;28933;52.492;13.434;2023-11-21T01:02:04;8.70;99.90
43338;DHT22;28933;52.492;13.434;2023-11-21T01:04:50;8.70;99.90
43338;DHT22;28933;52.492;13.434;2023-11-21T01:07:36;8.70;99.90
43338;DHT22;28933;52.492;13.434;2023-11-21T01:10:22;8.60;99.90
43338;DHT22;28933;52.492;13.434;2023-11-21T01:13:08;8.60;99.90
43338;DHT22;28933;52.492;13.434;2023-11-21T01:15:54;8.60;99.90
43338;DHT22;28933;52.492;13.434;2023-11-21T01:18:40;8.60;99.90
43338;DHT22;28933;52.492;13.434;2023-11-21T01:21:26;8.50;99.90
43338;DHT22;28933;52.492;13.434;2023-11-21T01:24:13;8.50;99.90
43338;DHT22;28933;52.492;13.434;2023-11-21T01:26:59;8.50;99.90
43338;DHT22;28933;52.492;13.434;2023-11-21T01:29:45;8.50;99.90
43338;DHT22;28933;52.492;13.434;2023-11-21T01:32:31;8.40;99.90
43338;DHT22;28933;52.492;13.434;2023-11-21T01:35:17;8.40;99.90
43338;DHT22;28933;52.492;13.434;2023-11-21T01:38:03;8.40;99.90
43338;DHT22;28933;52.492;13.434;2023-11-21T01:40:49;8.40;99.90
43338;DHT22;28933;52.492;13.434;2023-11-21T01:43:35;8.40;99.90
43338;DHT22;28933;52.492;13.434;2023-11-21T01:46:23;8.30;99.90
43338;DHT22;28933;52.492;13.434;2023-11-21T01:49:10;8.20;99.90
43338;DHT22;28933;52.492;13.434;2023-11-21T01:51:59;8.20;99.90
43338;DHT22;28933;52.492;13.434;2023-11-21T01:54:45;8.10;99.90
43338;DHT22;28933;52.492;13.434;2023-11-21T01:57:31;8.10;99.90
43338;DHT22;28933;52.492;13.434;2023-11-21T02:00:17;8.10;99.90
43338;DHT22;28933;52.492;13.434;2023-11-21T02:03:05;8.10;99.90
43338;DHT22;28933;52.492;13.434;2023-11-21T02:05:53;8.00;99.90
43338;DHT22;28933;52.492;13.434;2023-11-21T02:08:39;8.00;99.90
43338;DHT22;28933;52.492;13.434;2023-11-21T02:11:28;7.90;99.90
43338;DHT22;28933;52.492;13.434;2023-11-21T02:14:14;7.80;99.90
43338;DHT22;28933;52.492;13.434;2023-11-21T02:17:00;7.80;99.90
43338;DHT22;28933;52.492;13.434;2023-11-21T02:19:46;7.80;99.90
43338;DHT22;28933;52.492;13.434;2023-11-21T02:22:39;7.70;99.90
43338;DHT22;28933;52.492;13.434;2023-11-21T02:25:30;7.70;99.90
43338;DHT22;28933;52.492;13.434;2023-11-21T02:28:17;7.70;99.90
43338;DHT22;28933;52.492;13.434;2023-11-21T02:31:11;7.70;99.90
43338;DHT22;28933;52.492;13.434;2023-11-21T02:33:58;7.60;99.90
43338;DHT22;28933;52.492;13.434;2023-11-21T02:36:44;7.60;99.90
43338;DHT22;28933;52.492;13.434;2023-11-21T02:39:30;7.60;99.90
43338;DHT22;28933;52.492;13.434;2023-11-21T02:42:17;7.60;99.90
43338;DHT22;28933;52.492;13.434;2023-11-21T02:45:03;7.60;99.90
43338;DHT22;28933;52.492;13.434;2023-11-21T02:47:51;7.60;99.90
43338;DHT22;28933;52.492;13.434;2023-11-21T02:50:38;7.60;99.90
43338;DHT22;28933;52.492;13.434;2023-11-21T02:53:24;7.60;99.90
43338;DHT22;28933;52.492;13.434;2023-11-21T02:56:10;7.60;99.90
43338;DHT22;28933;52.492;13.434;2023-11-21T02:58:57;7.60;99.90
43338;DHT22;28933;52.492;13.434;2023-11-21T03:01:43;7.70;99.90
43338;DHT22;28933;52.492;13.434;2023-11-21T03:04:28;7.70;99.90
43338;DHT22;28933;52.492;13.434;2023-11-21T03:07:15;7.60;99.90
43338;DHT22;28933;52.492;13.434;2023-11-21T03:10:01;7.60;99.90
43338;DHT22;28933;52.492;13.434;2023-11-21T03:12:47;7.60;99.90
43338;DHT22;28933;52.492;13.434;2023-11-21T03:15:33;7.60;99.90
43338;DHT22;28933;52.492;13.434;2023-11-21T03:18:20;7.60;99.90
43338;DHT22;28933;52.492;13.434;2023-11-21T03:21:08;7.60;99.90
43338;DHT22;28933;52.492;13.434;2023-11-21T03:23:57;7.50;99.90
43338;DHT22;28933;52.492;13.434;2023-11-21T03:26:44;7.60;99.90
43338;DHT22;28933;52.492;13.434;2023-11-21T03:29:30;7.60;99.90
43338;DHT22;28933;52.492;13.434;2023-11-21T03:32:16;7.60;99.90
43338;DHT22;28933;52.492;13.434;2023-11-21T03:35:02;7.60;99.90
43338;DHT22;28933;52.492;13.434;2023-11-21T03:37:49;7.60;99.90
43338;DHT22;28933;52.492;13.434;2023-11-21T03:40:35;7.60;99.90
43338;DHT22;28933;52.492;13.434;2023-11-21T03:43:21;7.60;99.90
43338;DHT22;28933;52.492;13.434;2023-11-21T03:46:07;7.60;99.90
43338;DHT22;28933;52.492;13.434;2023-11-21T03:48:53;7.60;99.90
43338;DHT22;28933;52.492;13.434;2023-11-21T03:51:40;7.60;99.90
43338;DHT22;28933;52.492;13.434;2023-11-21T03:54:26;7.60;99.90
43338;DHT22;28933;52.492;13.434;2023-11-21T03:57:12;7.50;99.90
43338;DHT22;28933;52.492;13.434;2023-11-21T03:59:58;7.50;99.90
43338;DHT22;28933;52.492;13.434;2023-11-21T04:02:45;7.40;99.90
43338;DHT22;28933;52.492;13.434;2023-11-21T04:05:31;7.40;99.90
43338;DHT22;28933;52.492;13.434;2023-11-21T04:08:17;7.40;99.90
43338;DHT22;28933;52.492;13.434;2023-11-21T04:11:03;7.40;99.90
43338;DHT22;28933;52.492;13.434;2023-11-21T04:13:49;7.40;99.90
43338;DHT22;28933;52.492;13.434;2023-11-21T04:16:35;7.40;99.90
43338;DHT22;28933;52.492;13.434;2023-11-21T04:19:21;7.40;99.90
43338;DHT22;28933;52.492;13.434;2023-11-21T04:22:07;7.40;99.90
43338;DHT22;28933;52.492;13.434;2023-11-21T04:24:53;7.30;99.90
43338;DHT22;28933;52.492;13.434;2023-11-21T04:27:42;7.30;99.90
43338;DHT22;28933;52.492;13.434;2023-11-21T04:30:29;7.20;99.90
43338;DHT22;28933;52.492;13.434;2023-11-21T04:33:15;7.20;99.90
43338;DHT22;28933;52.492;13.434;2023-11-21T04:36:01;7.10;99.90
43338;DHT22;28933;52.492;13.434;2023-11-21T04:38:47;7.10;99.90
43338;DHT22;28933;52.492;13.434;2023-11-21T04:41:33;7.00;99.90
43338;DHT22;28933;52.492;13.434;2023-11-21T04:44:19;7.00;99.90
43338;DHT22;28933;52.492;13.434;2023-11-21T04:47:05;7.00;99.90
43338;DHT22;28933;52.492;13.434;2023-11-21T04:49:51;7.00;99.90
43338;DHT22;28933;52.492;13.434;2023-11-21T04:52:37;7.00;99.90
43338;DHT22;28933;52.492;13.434;2023-11-21T04:55:23;7.00;99.90
43338;DHT22;28933;52.492;13.434;2023-11-21T04:58:10;7.10;99.90
43338;DHT22;28933;52.492;13.434;2023-11-21T05:00:57;7.10;99.90
43338;DHT22;28933;52.492;13.434;2023-11-21T05:03:43;7.10;99.90
43338;DHT22;28933;52.492;13.434;2023-11-21T05:06:29;7.10;99.90
43338;DHT22;28933;52.492;13.434;2023-11-21T05:09:15;7.10;99.90
43338;DHT22;28933;52.492;13.434;2023-11-21T05:12:01;7.10;99.90
43338;DHT22;28933;52.492;13.434;2023-11-21T05:14:47;7.10;99.90
43338;DHT22;28933;52.492;13.434;2023-11-21T05:17:34;7.10;99.90
43338;DHT22;28933;52.492;13.434;2023-11-21T05:20:20;7.10;99.90
43338;DHT22;28933;52.492;13.434;2023-11-21T05:23:07;7.10;99.90
43338;DHT22;28933;52.492;13.434;2023-11-21T05:25:53;7.10;99.90
43338;DHT22;28933;52.492;13.434;2023-11-21T05:28:39;7.00;99.90
43338;DHT22;28933;52.492;13.434;2023-11-21T05:31:26;7.00;99.90
43338;DHT22;28933;52.492;13.434;2023-11-21T05:34:12;7.10;99.90
43338;DHT22;28933;52.492;13.434;2023-11-21T05:36:58;7.10;99.90
43338;DHT22;28933;52.492;13.434;2023-11-21T05:39:44;7.10;99.90
43338;DHT22;28933;52.492;13.434;2023-11-21T05:42:30;7.10;99.90
43338;DHT22;28933;52.492;13.434;2023-11-21T05:45:16;7.10;99.90
43338;DHT22;28933;52.492;13.434;2023-11-21T05:48:02;7.10;99.90
43338;DHT22;28933;52.492;13.434;2023-11-21T05:50:49;7.10;99.90
43338;DHT22;28933;52.492;13.434;2023-11-21T05:53:35;7.10;99.90
43338;DHT22;28933;52.492;13.434;2023-11-21T05:56:21;7.10;99.90
43338;DHT22;28933;52.492;13.434;2023-11-21T05:59:07;7.10;99.90
43338;DHT22;28933;52.492;13.434;2023-11-21T06:01:53;7.10;99.90
43338;DHT22;28933;52.492;13.434;2023-11-21T06:04:39;7.10;99.90
43338;DHT22;28933;52.492;13.434;2023-11-21T06:07:25;7.00;99.90
43338;DHT22;28933;52.492;13.434;2023-11-21T06:10:11;7.00;99.90
43338;DHT22;28933;52.492;13.434;2023-11-21T06:12:59;7.00;99.90
43338;DHT22;28933;52.492;13.434;2023-11-21T06:15:45;7.00;99.90
43338;DHT22;28933;52.492;13.434;2023-11-21T06:18:31;7.00;99.90
43338;DHT22;28933;52.492;13.434;2023-11-21T06:21:17;7.00;99.90
43338;DHT22;28933;52.492;13.434;2023-11-21T06:24:04;7.00;99.90
43338;DHT22;28933;52.492;13.434;2023-11-21T06:26:50;7.00;99.90
43338;DHT22;28933;52.492;13.434;2023-11-21T06:29:36;6.90;99.90
43338;DHT22;28933;52.492;13.434;2023-11-21T06:32:22;6.90;99.90
43338;DHT22;28933;52.492;13.434;2023-11-21T06:35:08;6.90;99.90
43338;DHT22;28933;52.492;13.434;2023-11-21T06:37:55;6.90;99.90
43338;DHT22;28933;52.492;13.434;2023-11-21T06:40:41;6.90;99.90
43338;DHT22;28933;52.492;13.434;2023-11-21T06:43:27;6.90;99.90
43338;DHT22;28933;52.492;13.434;2023-11-21T06:46:13;6.90;99.90
43338;DHT22;28933;52.492;13.434;2023-11-21T06:49:00;6.90;99.90
43338;DHT22;28933;52.492;13.434;2023-11-21T06:51:46;7.00;99.90
43338;DHT22;28933;52.492;13.434;2023-11-21T06:54:32;6.90;99.90
43338;DHT22;28933;52.492;13.434;2023-11-21T06:57:23;6.90;99.90
43338;DHT22;28933;52.492;13.434;2023-11-21T07:00:09;6.90;99.90
43338;DHT22;28933;52.492;13.434;2023-11-21T07:02:55;6.90;99.90
43338;DHT22;28933;52.492;13.434;2023-11-21T07:05:41;6.90;99.90
43338;DHT22;28933;52.492;13.434;2023-11-21T07:08:27;6.90;99.90
43338;DHT22;28933;52.492;13.434;2023-11-21T07:11:13;6.90;99.90
43338;DHT22;28933;52.492;13.434;2023-11-21T07:13:59;6.90;99.90
43338;DHT22;28933;52.492;13.434;2023-11-21T07:16:45;6.90;99.90
43338;DHT22;28933;52.492;13.434;2023-11-21T07:19:31;6.90;99.90
43338;DHT22;28933;52.492;13.434;2023-11-21T07:22:17;6.90;99.90
43338;DHT22;28933;52.492;13.434;2023-11-21T07:25:07;6.90;99.90
43338;DHT22;28933;52.492;13.434;2023-11-21T07:27:55;6.90;99.90
43338;DHT22;28933;52.492;13.434;2023-11-21T07:30:42;6.80;99.90
43338;DHT22;28933;52.492;13.434;2023-11-21T07:33:28;6.80;99.90
43338;DHT22;28933;52.492;13.434;2023-11-21T07:36:15;6.70;99.90
43338;DHT22;28933;52.492;13.434;2023-11-21T07:39:01;6.70;99.90
43338;DHT22;28933;52.492;13.434;2023-11-21T07:41:48;6.70;99.90
43338;DHT22;28933;52.492;13.434;2023-11-21T07:44:35;6.70;99.90
43338;DHT22;28933;52.492;13.434;2023-11-21T07:47:21;6.70;99.90
43338;DHT22;28933;52.492;13.434;2023-11-21T07:50:07;6.80;99.90
43338;DHT22;28933;52.492;13.434;2023-11-21T07:52:54;6.80;99.90
43338;DHT22;28933;52.492;13.434;2023-11-21T07:55:40;6.80;99.90
43338;DHT22;28933;52.492;13.434;2023-11-21T07:58:26;6.80;99.90
43338;DHT22;28933;52.492;13.434;2023-11-21T08:01:12;6.80;99.90
43338;DHT22;28933;52.492;13.434;2023-11-21T08:03:58;6.80;99.90
43338;DHT22;28933;52.492;13.434;2023-11-21T08:06:49;6.90;99.90
43338;DHT22;28933;52.492;13.434;2023-11-21T08:09:34;6.80;99.90
43338;DHT22;28933;52.492;13.434;2023-11-21T08:12:20;6.80;99.90
43338;DHT22;28933;52.492;13.434;2023-11-21T08:15:07;6.80;99.90
43338;DHT22;28933;52.492;13.434;2023-11-21T08:17:53;6.80;99.90
43338;DHT22;28933;52.492;13.434;2023-11-21T08:20:39;6.80;99.90
43338;DHT22;28933;52.492;13.434;2023-11-21T08:23:25;6.80;99.90
43338;DHT22;28933;52.492;13.434;2023-11-21T08:26:12;6.80;99.90
43338;DHT22;28933;52.492;13.434;2023-11-21T08:28:59;6.80;99.90
43338;DHT22;28933;52.492;13.434;2023-11-21T08:31:45;6.70;99.90
43338;DHT22;28933;52.492;13.434;2023-11-21T08:34:34;6.70;99.90
43338;DHT22;28933;52.492;13.434;2023-11-21T08:37:20;6.80;99.90
43338;DHT22;28933;52.492;13.434;2023-11-21T08:40:06;6.80;99.90
43338;DHT22;28933;52.492;13.434;2023-11-21T08:42:58;6.60;99.90
43338;DHT22;28933;52.492;13.434;2023-11-21T08:45:46;6.70;99.90
43338;DHT22;28933;52.492;13.434;2023-11-21T08:48:32;6.70;99.90
43338;DHT22;28933;52.492;13.434;2023-11-21T08:51:18;6.60;99.90
43338;DHT22;28933;52.492;13.434;2023-11-21T08:54:04;6.60;99.90
43338;DHT22;28933;52.492;13.434;2023-11-21T08:56:54;6.60;99.90
43338;DHT22;28933;52.492;13.434;2023-11-21T08:59:40;6.50;99.90
43338;DHT22;28933;52.492;13.434;2023-11-21T09:02:26;6.60;99.90
43338;DHT22;28933;52.492;13.434;2023-11-21T09:05:13;6.60;99.90
43338;DHT22;28933;52.492;13.434;2023-11-21T09:07:59;6.70;99.90
43338;DHT22;28933;52.492;13.434;2023-11-21T09:10:45;6.60;99.90
43338;DHT22;28933;52.492;13.434;2023-11-21T09:13:32;6.60;99.90
43338;DHT22;28933;52.492;13.434;2023-11-21T09:16:19;6.50;99.90
43338;DHT22;28933;52.492;13.434;2023-11-21T09:19:05;6.50;99.90
43338;DHT22;28933;52.492;13.434;2023-11-21T09:21:51;6.50;99.90
43338;DHT22;28933;52.492;13.434;2023-11-21T09:24:37;6.50;99.90
43338;DHT22;28933;52.492;13.434;2023-11-21T09:27:23;6.40;99.90
43338;DHT22;28933;52.492;13.434;2023-11-21T09:30:09;6.50;99.90
43338;DHT22;28933;52.492;13.434;2023-11-21T09:32:56;6.50;99.90
43338;DHT22;28933;52.492;13.434;2023-11-21T09:35:42;6.50;99.90
43338;DHT22;28933;52.492;13.434;2023-11-21T09:38:29;6.50;99.90
43338;DHT22;28933;52.492;13.434;2023-11-21T09:41:34;6.40;99.90
43338;DHT22;28933;52.492;13.434;2023-11-21T09:44:44;6.40;99.90
43338;DHT22;28933;52.492;13.434;2023-11-21T09:47:32;6.40;99.90
43338;DHT22;28933;52.492;13.434;2023-11-21T09:50:20;6.50;99.90
43338;DHT22;28933;52.492;13.434;2023-11-21T09:53:13;6.50;99.90
43338;DHT22;28933;52.492;13.434;2023-11-21T09:56:02;6.50;99.90
43338;DHT22;28933;52.492;13.434;2023-11-21T09:58:51;6.60;99.90
43338;DHT22;28933;52.492;13.434;2023-11-21T10:01:38;6.60;99.90
43338;DHT22;28933;52.492;13.434;2023-11-21T10:04:27;6.60;99.90
43338;DHT22;28933;52.492;13.434;2023-11-21T10:07:16;6.50;99.90
43338;DHT22;28933;52.492;13.434;2023-11-21T10:10:05;6.60;99.90
43338;DHT22;28933;52.492;13.434;2023-11-21T10:12:54;6.60;99.90
43338;DHT22;28933;52.492;13.434;2023-11-21T10:15:41;6.60;99.90
43338;DHT22;28933;52.492;13.434;2023-11-21T10:18:30;6.60;99.90
43338;DHT22;28933;52.492;13.434;2023-11-21T10:21:16;6.50;99.90
43338;DHT22;28933;52.492;13.434;2023-11-21T10:24:02;6.40;99.90
43338;DHT22;28933;52.492;13.434;2023-11-21T10:26:48;6.40;99.90
43338;DHT22;28933;52.492;13.434;2023-11-21T10:29:36;6.40;99.90
43338;DHT22;28933;52.492;13.434;2023-11-21T10:32:28;6.40;99.90
43338;DHT22;28933;52.492;13.434;2023-11-21T10:35:14;6.40;99.90
43338;DHT22;28933;52.492;13.434;2023-11-21T10:38:00;6.40;99.90
43338;DHT22;28933;52.492;13.434;2023-11-21T10:40:47;6.40;99.90
43338;DHT22;28933;52.492;13.434;2023-11-21T10:43:33;6.40;99.90
43338;DHT22;28933;52.492;13.434;2023-11-21T10:46:19;6.30;99.90
43338;DHT22;28933;52.492;13.434;2023-11-21T10:49:06;6.30;99.90
43338;DHT22;28933;52.492;13.434;2023-11-21T10:51:53;6.20;99.90
43338;DHT22;28933;52.492;13.434;2023-11-21T10:54:39;6.20;99.90
43338;DHT22;28933;52.492;13.434;2023-11-21T10:57:25;6.20;99.90
43338;DHT22;28933;52.492;13.434;2023-11-21T11:00:13;6.10;99.90
43338;DHT22;28933;52.492;13.434;2023-11-21T11:02:59;6.10;99.90
43338;DHT22;28933;52.492;13.434;2023-11-21T11:05:46;6.10;99.90
43338;DHT22;28933;52.492;13.434;2023-11-21T11:08:37;6.00;99.90
43338;DHT22;28933;52.492;13.434;2023-11-21T11:11:24;6.00;99.90
43338;DHT22;28933;52.492;13.434;2023-11-21T11:14:11;6.00;99.90
43338;DHT22;28933;52.492;13.434;2023-11-21T11:16:58;6.00;99.90
43338;DHT22;28933;52.492;13.434;2023-11-21T11:19:49;6.00;99.90
43338;DHT22;28933;52.492;13.434;2023-11-21T11:22:43;6.10;99.90
43338;DHT22;28933;52.492;13.434;2023-11-21T11:28:21;6.30;99.90
43338;DHT22;28933;52.492;13.434;2023-11-21T11:31:14;6.20;99.90
43338;DHT22;28933;52.492;13.434;2023-11-21T11:37:18;6.20;99.90
43338;DHT22;28933;52.492;13.434;2023-11-21T11:40:11;6.20;99.90
43338;DHT22;28933;52.492;13.434;2023-11-21T11:42:58;6.10;99.90
43338;DHT22;28933;52.492;13.434;2023-11-21T11:45:48;6.10;99.90
43338;DHT22;28933;52.492;13.434;2023-11-21T11:48:40;6.10;99.90
43338;DHT22;28933;52.492;13.434;2023-11-21T11:51:26;6.20;99.90
43338;DHT22;28933;52.492;13.434;2023-11-21T11:54:12;6.20;99.90
43338;DHT22;28933;52.492;13.434;2023-11-21T11:56:59;6.20;99.90
43338;DHT22;28933;52.492;13.434;2023-11-21T12:00:11;6.20;99.90
43338;DHT22;28933;52.492;13.434;2023-11-21T12:03:00;6.10;99.90
43338;DHT22;28933;52.492;13.434;2023-11-21T12:05:49;6.10;99.90
43338;DHT22;28933;52.492;13.434;2023-11-21T12:08:38;6.00;99.90
43338;DHT22;28933;52.492;13.434;2023-11-21T12:11:30;6.10;99.90
43338;DHT22;28933;52.492;13.434;2023-11-21T12:14:17;6.00;99.90
43338;DHT22;28933;52.492;13.434;2023-11-21T12:17:03;6.10;99.90
43338;DHT22;28933;52.492;13.434;2023-11-21T12:19:50;6.00;99.90
43338;DHT22;28933;52.492;13.434;2023-11-21T12:22:38;6.00;99.90
43338;DHT22;28933;52.492;13.434;2023-11-21T12:25:31;6.00;99.90
43338;DHT22;28933;52.492;13.434;2023-11-21T12:28:18;6.00;99.90
43338;DHT22;28933;52.492;13.434;2023-11-21T12:31:04;6.00;99.90
43338;DHT22;28933;52.492;13.434;2023-11-21T12:33:52;6.00;99.90
43338;DHT22;28933;52.492;13.434;2023-11-21T12:36:38;5.90;99.90
43338;DHT22;28933;52.492;13.434;2023-11-21T12:39:24;5.90;99.90
43338;DHT22;28933;52.492;13.434;2023-11-21T12:42:10;5.90;99.90
43338;DHT22;28933;52.492;13.434;2023-11-21T12:45:10;5.80;99.90
43338;DHT22;28933;52.492;13.434;2023-11-21T12:48:04;5.90;99.90
43338;DHT22;28933;52.492;13.434;2023-11-21T12:50:54;5.90;99.90
43338;DHT22;28933;52.492;13.434;2023-11-21T12:53:42;5.90;99.90
43338;DHT22;28933;52.492;13.434;2023-11-21T12:56:28;5.80;99.90
43338;DHT22;28933;52.492;13.434;2023-11-21T12:59:14;5.80;99.90
43338;DHT22;28933;52.492;13.434;2023-11-21T13:02:02;5.80;99.90
43338;DHT22;28933;52.492;13.434;2023-11-21T13:04:53;5.70;99.90
43338;DHT22;28933;52.492;13.434;2023-11-21T13:07:42;5.70;99.90
43338;DHT22;28933;52.492;13.434;2023-11-21T13:10:34;5.70;99.90
43338;DHT22;28933;52.492;13.434;2023-11-21T13:13:22;5.70;99.90
43338;DHT22;28933;52.492;13.434;2023-11-21T13:16:10;5.70;99.90
43338;DHT22;28933;52.492;13.434;2023-11-21T13:18:56;5.70;99.90
43338;DHT22;28933;52.492;13.434;2023-11-21T13:21:42;5.70;99.90
43338;DHT22;28933;52.492;13.434;2023-11-21T13:24:28;5.70;99.90
43338;DHT22;28933;52.492;13.434;2023-11-21T13:27:13;5.80;99.90
43338;DHT22;28933;52.492;13.434;2023-11-21T13:30:01;5.70;99.90
43338;DHT22;28933;52.492;13.434;2023-11-21T13:32:46;5.70;99.90
43338;DHT22;28933;52.492;13.434;2023-11-21T13:35:35;5.80;99.90
43338;DHT22;28933;52.492;13.434;2023-11-21T13:38:23;5.70;99.90
43338;DHT22;28933;52.492;13.434;2023-11-21T13:41:09;5.70;99.90
43338;DHT22;28933;52.492;13.434;2023-11-21T13:43:56;5.80;99.90
43338;DHT22;28933;52.492;13.434;2023-11-21T13:46:57;5.70;99.90
43338;DHT22;28933;52.492;13.434;2023-11-21T13:49:44;5.60;99.90
43338;DHT22;28933;52.492;13.434;2023-11-21T13:52:30;5.50;99.90
43338;DHT22;28933;52.492;13.434;2023-11-21T13:55:19;5.50;99.90
43338;DHT22;28933;52.492;13.434;2023-11-21T13:58:05;5.40;99.90
43338;DHT22;28933;52.492;13.434;2023-11-21T14:00:55;5.40;99.90
43338;DHT22;28933;52.492;13.434;2023-11-21T14:03:42;5.40;99.90
43338;DHT22;28933;52.492;13.434;2023-11-21T14:06:37;5.30;99.90
43338;DHT22;28933;52.492;13.434;2023-11-21T14:09:33;5.30;99.90
43338;DHT22;28933;52.492;13.434;2023-11-21T14:12:21;5.30;99.90
43338;DHT22;28933;52.492;13.434;2023-11-21T14:15:07;5.20;99.90
43338;DHT22;28933;52.492;13.434;2023-11-21T14:17:55;5.10;99.90
43338;DHT22;28933;52.492;13.434;2023-11-21T14:20:41;5.10;99.90
43338;DHT22;28933;52.492;13.434;2023-11-21T14:23:27;5.00;99.90
43338;DHT22;28933;52.492;13.434;2023-11-21T14:26:15;5.00;99.90
43338;DHT22;28933;52.492;13.434;2023-11-21T14:29:02;5.00;99.90
43338;DHT22;28933;52.492;13.434;2023-11-21T14:31:49;4.90;99.90
43338;DHT22;28933;52.492;13.434;2023-11-21T14:34:41;4.90;99.90
43338;DHT22;28933;52.492;13.434;2023-11-21T14:37:31;4.90;99.90
43338;DHT22;28933;52.492;13.434;2023-11-21T14:40:17;4.90;99.90
43338;DHT22;28933;52.492;13.434;2023-11-21T14:43:03;4.90;99.90
43338;DHT22;28933;52.492;13.434;2023-11-21T14:45:52;5.00;99.90
43338;DHT22;28933;52.492;13.434;2023-11-21T14:48:38;5.00;99.90
43338;DHT22;28933;52.492;13.434;2023-11-21T14:51:41;4.80;99.90
43338;DHT22;28933;52.492;13.434;2023-11-21T14:54:45;4.70;99.90
43338;DHT22;28933;52.492;13.434;2023-11-21T14:57:32;4.70;99.90
43338;DHT22;28933;52.492;13.434;2023-11-21T15:00:20;4.60;99.90
43338;DHT22;28933;52.492;13.434;2023-11-21T15:03:30;4.60;99.90
43338;DHT22;28933;52.492;13.434;2023-11-21T15:06:18;4.60;99.90
43338;DHT22;28933;52.492;13.434;2023-11-21T15:09:12;4.50;99.90
43338;DHT22;28933;52.492;13.434;2023-11-21T15:11:59;4.40;99.90
43338;DHT22;28933;52.492;13.434;2023-11-21T15:15:00;4.40;99.90
43338;DHT22;28933;52.492;13.434;2023-11-21T15:17:46;4.30;99.90
43338;DHT22;28933;52.492;13.434;2023-11-21T15:20:33;4.40;99.90
43338;DHT22;28933;52.492;13.434;2023-11-21T15:23:19;4.30;99.90
43338;DHT22;28933;52.492;13.434;2023-11-21T15:26:05;4.40;99.90
43338;DHT22;28933;52.492;13.434;2023-11-21T15:28:51;4.40;99.90
43338;DHT22;28933;52.492;13.434;2023-11-21T15:31:37;4.30;99.90
43338;DHT22;28933;52.492;13.434;2023-11-21T15:34:24;4.30;99.90
43338;DHT22;28933;52.492;13.434;2023-11-21T15:37:12;4.30;99.90
43338;DHT22;28933;52.492;13.434;2023-11-21T15:39:57;4.40;99.90
43338;DHT22;28933;52.492;13.434;2023-11-21T15:42:43;4.40;99.90
43338;DHT22;28933;52.492;13.434;2023-11-21T15:45:30;4.40;99.90
43338;DHT22;28933;52.492;13.434;2023-11-21T15:48:16;4.50;99.90
43338;DHT22;28933;52.492;13.434;2023-11-21T15:51:02;4.40;99.90
43338;DHT22;28933;52.492;13.434;2023-11-21T15:53:50;4.50;99.90
43338;DHT22;28933;52.492;13.434;2023-11-21T15:56:38;4.50;99.90
43338;DHT22;28933;52.492;13.434;2023-11-21T15:59:25;4.40;99.90
43338;DHT22;28933;52.492;13.434;2023-11-21T16:02:17;4.40;99.90
43338;DHT22;28933;52.492;13.434;2023-11-21T16:05:03;4.50;99.90
43338;DHT22;28933;52.492;13.434;2023-11-21T16:07:51;4.40;99.90
43338;DHT22;28933;52.492;13.434;2023-11-21T16:10:37;4.40;99.90
43338;DHT22;28933;52.492;13.434;2023-11-21T16:13:23;4.40;99.90
43338;DHT22;28933;52.492;13.434;2023-11-21T16:16:09;4.30;99.90
43338;DHT22;28933;52.492;13.434;2023-11-21T16:18:54;4.40;99.90
43338;DHT22;28933;52.492;13.434;2023-11-21T16:21:40;4.40;99.90
43338;DHT22;28933;52.492;13.434;2023-11-21T16:24:27;4.40;99.90
43338;DHT22;28933;52.492;13.434;2023-11-21T16:27:13;4.40;99.90
43338;DHT22;28933;52.492;13.434;2023-11-21T16:29:59;4.40;99.90
43338;DHT22;28933;52.492;13.434;2023-11-21T16:32:45;4.40;99.90
43338;DHT22;28933;52.492;13.434;2023-11-21T16:35:31;4.50;99.90
43338;DHT22;28933;52.492;13.434;2023-11-21T16:38:17;4.40;99.90
43338;DHT22;28933;52.492;13.434;2023-11-21T16:41:03;4.40;99.90
43338;DHT22;28933;52.492;13.434;2023-11-21T16:43:49;4.40;99.90
43338;DHT22;28933;52.492;13.434;2023-11-21T16:46:35;4.40;99.90
43338;DHT22;28933;52.492;13.434;2023-11-21T16:49:21;4.30;99.90
43338;DHT22;28933;52.492;13.434;2023-11-21T16:52:07;4.30;99.90
43338;DHT22;28933;52.492;13.434;2023-11-21T16:54:52;4.30;99.90
43338;DHT22;28933;52.492;13.434;2023-11-21T16:57:38;4.40;99.90
43338;DHT22;28933;52.492;13.434;2023-11-21T17:00:24;4.50;99.90
43338;DHT22;28933;52.492;13.434;2023-11-21T17:03:10;4.40;99.90
43338;DHT22;28933;52.492;13.434;2023-11-21T17:05:57;4.50;99.90
43338;DHT22;28933;52.492;13.434;2023-11-21T17:08:43;4.50;99.90
43338;DHT22;28933;52.492;13.434;2023-11-21T17:11:30;4.50;99.90
43338;DHT22;28933;52.492;13.434;2023-11-21T17:14:17;4.50;99.90
43338;DHT22;28933;52.492;13.434;2023-11-21T17:17:03;4.40;99.90
43338;DHT22;28933;52.492;13.434;2023-11-21T17:19:53;4.40;99.90
43338;DHT22;28933;52.492;13.434;2023-11-21T17:22:39;4.40;99.90
43338;DHT22;28933;52.492;13.434;2023-11-21T17:25:25;4.40;99.90
43338;DHT22;28933;52.492;13.434;2023-11-21T17:28:11;4.40;99.90
43338;DHT22;28933;52.492;13.434;2023-11-21T17:30:57;4.30;99.90
43338;DHT22;28933;52.492;13.434;2023-11-21T17:33:43;4.30;99.90
43338;DHT22;28933;52.492;13.434;2023-11-21T17:36:29;4.30;99.90
43338;DHT22;28933;52.492;13.434;2023-11-21T17:39:15;4.40;99.90
43338;DHT22;28933;52.492;13.434;2023-11-21T17:42:01;4.40;99.90